Terminal Aerodrome Forecast
Issued by NWS

Home | Current Version | Previous Version | Text Only | Print | Product List | Glossary On
Versions: 1 2 3 4 5 6 7 8 9 10 11 12 13 14 15 16 17 18 19
000
FTUS43 KLSX 241136
TAFSUS
TAF
KSUS 241136Z 2412/2512 35005KT 6SM BR FEW009 OVC015
     FM241300 36009KT P6SM BKN015
     FM241800 36009G18KT P6SM BKN035
     FM242300 35010KT P6SM SCT100
     FM250000 34006KT P6SM SCT150=

USA.gov is the U.S. government's official web portal to all federal, state and local government web resources and services.